Terminal Aerodrome Forecast
Issued by NWS Twin Cities, MN

Home | Current Version | Previous Version | Text Only | Print | Product List | Glossary On
Versions: 1 2 3 4 5 6 7 8 9 10 11 12 13 14 15 16 17 18
837
FTUS43 KMPX 202347
TAFEAU
TAF
KEAU 202347Z 2100/2124 18011KT P6SM FEW030
     FM210100 16008KT P6SM SCT120 PROB30 2111/2114 4SM -TSRA
      BKN050CB
     FM211500 22010KT P6SM SCT120 OVC250=

USA.gov is the U.S. government's official web portal to all federal, state and local government web resources and services.